sensor_id;sensor_type;location;lat;lon;timestamp;P1;durP1;ratioP1;P2;durP2;ratioP2
79076;SDS011;68477;42.698;23.342;2024-03-25T00:01:57;5.40;;;0.98;;
79076;SDS011;68477;42.698;23.342;2024-03-25T00:04:23;1.65;;;0.80;;
79076;SDS011;68477;42.698;23.342;2024-03-25T00:06:51;1.88;;;0.63;;
79076;SDS011;68477;42.698;23.342;2024-03-25T00:09:18;4.55;;;1.08;;
79076;SDS011;68477;42.698;23.342;2024-03-25T00:11:43;2.72;;;0.73;;
79076;SDS011;68477;42.698;23.342;2024-03-25T00:14:09;1.70;;;0.68;;
79076;SDS011;68477;42.698;23.342;2024-03-25T00:16:35;2.35;;;0.65;;
79076;SDS011;68477;42.698;23.342;2024-03-25T00:19:02;2.00;;;0.90;;
79076;SDS011;68477;42.698;23.342;2024-03-25T00:21:27;1.75;;;0.73;;
79076;SDS011;68477;42.698;23.342;2024-03-25T00:23:53;1.60;;;0.65;;
79076;SDS011;68477;42.698;23.342;2024-03-25T00:26:21;1.70;;;0.73;;
79076;SDS011;68477;42.698;23.342;2024-03-25T00:28:47;2.83;;;1.00;;
79076;SDS011;68477;42.698;23.342;2024-03-25T00:31:14;1.83;;;0.90;;
79076;SDS011;68477;42.698;23.342;2024-03-25T00:33:40;2.22;;;1.23;;
79076;SDS011;68477;42.698;23.342;2024-03-25T00:36:05;2.08;;;1.05;;
79076;SDS011;68477;42.698;23.342;2024-03-25T00:38:31;2.28;;;1.13;;
79076;SDS011;68477;42.698;23.342;2024-03-25T00:40:56;2.10;;;1.10;;
79076;SDS011;68477;42.698;23.342;2024-03-25T00:43:22;1.90;;;0.77;;
79076;SDS011;68477;42.698;23.342;2024-03-25T00:45:48;2.90;;;0.90;;
79076;SDS011;68477;42.698;23.342;2024-03-25T00:48:14;1.80;;;0.95;;
79076;SDS011;68477;42.698;23.342;2024-03-25T00:50:39;2.28;;;0.95;;
79076;SDS011;68477;42.698;23.342;2024-03-25T00:53:05;2.30;;;1.20;;
79076;SDS011;68477;42.698;23.342;2024-03-25T00:55:32;5.18;;;0.88;;
79076;SDS011;68477;42.698;23.342;2024-03-25T00:57:59;1.90;;;0.70;;
79076;SDS011;68477;42.698;23.342;2024-03-25T01:00:24;2.00;;;1.00;;
79076;SDS011;68477;42.698;23.342;2024-03-25T01:02:50;2.58;;;0.80;;
79076;SDS011;68477;42.698;23.342;2024-03-25T01:05:16;2.70;;;1.00;;
79076;SDS011;68477;42.698;23.342;2024-03-25T01:07:42;2.28;;;0.63;;
79076;SDS011;68477;42.698;23.342;2024-03-25T01:10:08;3.05;;;1.10;;
79076;SDS011;68477;42.698;23.342;2024-03-25T01:12:33;1.80;;;0.95;;
79076;SDS011;68477;42.698;23.342;2024-03-25T01:14:59;1.85;;;0.70;;
79076;SDS011;68477;42.698;23.342;2024-03-25T01:17:24;3.53;;;1.13;;
79076;SDS011;68477;42.698;23.342;2024-03-25T01:19:50;2.28;;;0.90;;
79076;SDS011;68477;42.698;23.342;2024-03-25T01:22:15;1.85;;;0.82;;
79076;SDS011;68477;42.698;23.342;2024-03-25T01:24:41;3.88;;;0.70;;
79076;SDS011;68477;42.698;23.342;2024-03-25T01:27:06;2.35;;;1.00;;
79076;SDS011;68477;42.698;23.342;2024-03-25T01:29:32;2.08;;;0.98;;
79076;SDS011;68477;42.698;23.342;2024-03-25T01:31:58;2.53;;;1.10;;
79076;SDS011;68477;42.698;23.342;2024-03-25T01:34:24;1.90;;;0.75;;
79076;SDS011;68477;42.698;23.342;2024-03-25T01:36:51;1.70;;;0.80;;
79076;SDS011;68477;42.698;23.342;2024-03-25T01:39:17;1.80;;;1.05;;
79076;SDS011;68477;42.698;23.342;2024-03-25T01:41:43;1.60;;;0.73;;
79076;SDS011;68477;42.698;23.342;2024-03-25T01:44:09;2.17;;;0.90;;
79076;SDS011;68477;42.698;23.342;2024-03-25T01:46:34;2.17;;;1.00;;
79076;SDS011;68477;42.698;23.342;2024-03-25T01:49:01;2.33;;;1.20;;
79076;SDS011;68477;42.698;23.342;2024-03-25T01:51:26;4.32;;;0.93;;
79076;SDS011;68477;42.698;23.342;2024-03-25T01:53:53;2.03;;;1.02;;
79076;SDS011;68477;42.698;23.342;2024-03-25T01:56:20;2.45;;;0.80;;
79076;SDS011;68477;42.698;23.342;2024-03-25T01:58:48;1.80;;;0.68;;
79076;SDS011;68477;42.698;23.342;2024-03-25T02:01:14;2.58;;;0.55;;
79076;SDS011;68477;42.698;23.342;2024-03-25T02:03:42;2.10;;;1.20;;
79076;SDS011;68477;42.698;23.342;2024-03-25T02:08:40;1.65;;;0.60;;
79076;SDS011;68477;42.698;23.342;2024-03-25T02:11:07;1.60;;;0.50;;
79076;SDS011;68477;42.698;23.342;2024-03-25T02:13:34;2.00;;;0.70;;
79076;SDS011;68477;42.698;23.342;2024-03-25T02:16:01;2.10;;;1.02;;
79076;SDS011;68477;42.698;23.342;2024-03-25T02:18:27;1.80;;;0.70;;
79076;SDS011;68477;42.698;23.342;2024-03-25T02:20:53;2.45;;;1.10;;
79076;SDS011;68477;42.698;23.342;2024-03-25T02:23:18;1.90;;;1.05;;
79076;SDS011;68477;42.698;23.342;2024-03-25T02:25:48;1.90;;;1.10;;
79076;SDS011;68477;42.698;23.342;2024-03-25T02:28:15;2.53;;;1.38;;
79076;SDS011;68477;42.698;23.342;2024-03-25T02:30:41;1.80;;;1.10;;
79076;SDS011;68477;42.698;23.342;2024-03-25T02:33:06;1.98;;;1.10;;
79076;SDS011;68477;42.698;23.342;2024-03-25T02:35:32;1.85;;;0.85;;
79076;SDS011;68477;42.698;23.342;2024-03-25T02:37:58;1.80;;;1.00;;
79076;SDS011;68477;42.698;23.342;2024-03-25T02:40:24;1.80;;;0.80;;
79076;SDS011;68477;42.698;23.342;2024-03-25T02:42:51;2.22;;;1.00;;
79076;SDS011;68477;42.698;23.342;2024-03-25T02:45:17;2.10;;;0.80;;
79076;SDS011;68477;42.698;23.342;2024-03-25T02:47:43;2.13;;;1.30;;
79076;SDS011;68477;42.698;23.342;2024-03-25T02:50:09;2.72;;;1.00;;
79076;SDS011;68477;42.698;23.342;2024-03-25T02:52:34;2.00;;;1.00;;
79076;SDS011;68477;42.698;23.342;2024-03-25T02:55:00;1.60;;;0.75;;
79076;SDS011;68477;42.698;23.342;2024-03-25T02:57:26;2.50;;;0.90;;
79076;SDS011;68477;42.698;23.342;2024-03-25T02:59:51;1.90;;;1.00;;
79076;SDS011;68477;42.698;23.342;2024-03-25T03:02:17;1.70;;;0.73;;
79076;SDS011;68477;42.698;23.342;2024-03-25T03:04:42;1.90;;;1.02;;
79076;SDS011;68477;42.698;23.342;2024-03-25T03:07:08;1.98;;;0.93;;
79076;SDS011;68477;42.698;23.342;2024-03-25T03:09:34;1.80;;;1.00;;
79076;SDS011;68477;42.698;23.342;2024-03-25T03:12:00;2.78;;;1.45;;
79076;SDS011;68477;42.698;23.342;2024-03-25T03:14:25;2.33;;;1.40;;
79076;SDS011;68477;42.698;23.342;2024-03-25T03:16:51;2.20;;;1.17;;
79076;SDS011;68477;42.698;23.342;2024-03-25T03:19:20;2.30;;;1.30;;
79076;SDS011;68477;42.698;23.342;2024-03-25T03:21:46;2.15;;;1.27;;
79076;SDS011;68477;42.698;23.342;2024-03-25T03:24:11;3.08;;;1.20;;
79076;SDS011;68477;42.698;23.342;2024-03-25T03:26:37;2.17;;;1.38;;
79076;SDS011;68477;42.698;23.342;2024-03-25T03:29:02;2.30;;;1.45;;
79076;SDS011;68477;42.698;23.342;2024-03-25T03:31:29;2.63;;;1.10;;
79076;SDS011;68477;42.698;23.342;2024-03-25T03:33:55;2.30;;;1.40;;
79076;SDS011;68477;42.698;23.342;2024-03-25T03:36:21;1.80;;;0.90;;
79076;SDS011;68477;42.698;23.342;2024-03-25T03:39:06;1.90;;;0.85;;
79076;SDS011;68477;42.698;23.342;2024-03-25T03:41:35;1.80;;;1.10;;
79076;SDS011;68477;42.698;23.342;2024-03-25T03:44:01;1.92;;;1.20;;
79076;SDS011;68477;42.698;23.342;2024-03-25T03:46:27;2.28;;;1.20;;
79076;SDS011;68477;42.698;23.342;2024-03-25T03:48:52;2.20;;;1.27;;
79076;SDS011;68477;42.698;23.342;2024-03-25T03:51:18;2.10;;;1.30;;
79076;SDS011;68477;42.698;23.342;2024-03-25T03:53:43;2.38;;;1.10;;
79076;SDS011;68477;42.698;23.342;2024-03-25T03:56:08;1.80;;;0.95;;
79076;SDS011;68477;42.698;23.342;2024-03-25T03:58:34;2.63;;;1.15;;
79076;SDS011;68477;42.698;23.342;2024-03-25T04:01:00;2.70;;;1.58;;
79076;SDS011;68477;42.698;23.342;2024-03-25T04:03:44;4.50;;;1.67;;
79076;SDS011;68477;42.698;23.342;2024-03-25T04:06:10;3.15;;;1.88;;
79076;SDS011;68477;42.698;23.342;2024-03-25T04:08:37;2.33;;;1.30;;
79076;SDS011;68477;42.698;23.342;2024-03-25T04:11:03;3.25;;;1.92;;
79076;SDS011;68477;42.698;23.342;2024-03-25T04:13:31;2.95;;;1.67;;
79076;SDS011;68477;42.698;23.342;2024-03-25T04:16:00;3.10;;;1.77;;
79076;SDS011;68477;42.698;23.342;2024-03-25T04:18:27;3.20;;;1.80;;
79076;SDS011;68477;42.698;23.342;2024-03-25T04:20:53;4.57;;;2.28;;
79076;SDS011;68477;42.698;23.342;2024-03-25T04:23:19;3.60;;;2.30;;
79076;SDS011;68477;42.698;23.342;2024-03-25T04:25:44;2.80;;;1.88;;
79076;SDS011;68477;42.698;23.342;2024-03-25T04:28:09;3.95;;;2.40;;
79076;SDS011;68477;42.698;23.342;2024-03-25T04:30:35;3.05;;;1.80;;
79076;SDS011;68477;42.698;23.342;2024-03-25T04:33:01;3.67;;;2.13;;
79076;SDS011;68477;42.698;23.342;2024-03-25T04:35:27;5.88;;;2.63;;
79076;SDS011;68477;42.698;23.342;2024-03-25T04:37:53;4.10;;;2.35;;
79076;SDS011;68477;42.698;23.342;2024-03-25T04:40:20;4.45;;;2.30;;
79076;SDS011;68477;42.698;23.342;2024-03-25T04:42:46;6.00;;;2.88;;
79076;SDS011;68477;42.698;23.342;2024-03-25T04:45:11;6.43;;;2.50;;
79076;SDS011;68477;42.698;23.342;2024-03-25T04:47:37;8.00;;;3.30;;
79076;SDS011;68477;42.698;23.342;2024-03-25T04:50:04;8.43;;;3.20;;
79076;SDS011;68477;42.698;23.342;2024-03-25T04:52:30;6.65;;;3.80;;
79076;SDS011;68477;42.698;23.342;2024-03-25T04:54:56;7.78;;;3.58;;
79076;SDS011;68477;42.698;23.342;2024-03-25T04:57:21;6.82;;;3.85;;
79076;SDS011;68477;42.698;23.342;2024-03-25T04:59:47;6.15;;;3.55;;
79076;SDS011;68477;42.698;23.342;2024-03-25T05:02:13;7.28;;;3.50;;
79076;SDS011;68477;42.698;23.342;2024-03-25T05:04:39;6.72;;;3.80;;
79076;SDS011;68477;42.698;23.342;2024-03-25T05:07:04;6.57;;;3.90;;
79076;SDS011;68477;42.698;23.342;2024-03-25T05:09:30;5.90;;;3.47;;
79076;SDS011;68477;42.698;23.342;2024-03-25T05:11:56;7.65;;;4.47;;
79076;SDS011;68477;42.698;23.342;2024-03-25T05:14:21;6.93;;;3.83;;
79076;SDS011;68477;42.698;23.342;2024-03-25T05:16:47;6.78;;;3.63;;
79076;SDS011;68477;42.698;23.342;2024-03-25T05:19:14;7.15;;;3.90;;
79076;SDS011;68477;42.698;23.342;2024-03-25T05:21:39;8.18;;;3.97;;
79076;SDS011;68477;42.698;23.342;2024-03-25T05:24:05;6.85;;;4.50;;
79076;SDS011;68477;42.698;23.342;2024-03-25T05:26:31;9.80;;;4.28;;
79076;SDS011;68477;42.698;23.342;2024-03-25T05:28:57;9.55;;;4.30;;
79076;SDS011;68477;42.698;23.342;2024-03-25T05:31:23;9.88;;;5.55;;
79076;SDS011;68477;42.698;23.342;2024-03-25T05:33:49;9.80;;;5.03;;
79076;SDS011;68477;42.698;23.342;2024-03-25T05:36:15;11.32;;;5.60;;
79076;SDS011;68477;42.698;23.342;2024-03-25T05:38:40;8.20;;;4.10;;
79076;SDS011;68477;42.698;23.342;2024-03-25T05:41:07;8.20;;;4.25;;
79076;SDS011;68477;42.698;23.342;2024-03-25T05:43:33;6.85;;;3.83;;
79076;SDS011;68477;42.698;23.342;2024-03-25T05:45:59;7.40;;;4.35;;
79076;SDS011;68477;42.698;23.342;2024-03-25T05:48:24;8.95;;;4.80;;
79076;SDS011;68477;42.698;23.342;2024-03-25T05:51:03;10.05;;;5.25;;
79076;SDS011;68477;42.698;23.342;2024-03-25T05:53:30;6.75;;;4.68;;
79076;SDS011;68477;42.698;23.342;2024-03-25T05:55:56;9.48;;;5.15;;
79076;SDS011;68477;42.698;23.342;2024-03-25T05:58:24;4.97;;;2.72;;
79076;SDS011;68477;42.698;23.342;2024-03-25T06:00:50;8.40;;;4.45;;
79076;SDS011;68477;42.698;23.342;2024-03-25T06:03:16;6.05;;;4.10;;
79076;SDS011;68477;42.698;23.342;2024-03-25T06:05:43;10.93;;;5.63;;
79076;SDS011;68477;42.698;23.342;2024-03-25T06:08:09;7.97;;;4.85;;
79076;SDS011;68477;42.698;23.342;2024-03-25T06:10:43;6.82;;;4.15;;
79076;SDS011;68477;42.698;23.342;2024-03-25T06:13:09;11.05;;;5.32;;
79076;SDS011;68477;42.698;23.342;2024-03-25T06:15:35;9.18;;;5.25;;
79076;SDS011;68477;42.698;23.342;2024-03-25T06:18:00;9.32;;;5.25;;
79076;SDS011;68477;42.698;23.342;2024-03-25T06:20:25;8.88;;;5.10;;
79076;SDS011;68477;42.698;23.342;2024-03-25T06:22:51;10.13;;;5.40;;
79076;SDS011;68477;42.698;23.342;2024-03-25T06:25:16;10.43;;;6.53;;
79076;SDS011;68477;42.698;23.342;2024-03-25T06:27:42;9.93;;;5.18;;
79076;SDS011;68477;42.698;23.342;2024-03-25T06:30:09;12.30;;;6.90;;
79076;SDS011;68477;42.698;23.342;2024-03-25T06:32:55;7.90;;;5.18;;
79076;SDS011;68477;42.698;23.342;2024-03-25T06:35:39;10.30;;;5.90;;
79076;SDS011;68477;42.698;23.342;2024-03-25T06:38:04;9.48;;;5.78;;
79076;SDS011;68477;42.698;23.342;2024-03-25T06:40:30;11.48;;;7.13;;
79076;SDS011;68477;42.698;23.342;2024-03-25T06:42:56;9.50;;;5.60;;
79076;SDS011;68477;42.698;23.342;2024-03-25T06:45:22;10.65;;;6.30;;
79076;SDS011;68477;42.698;23.342;2024-03-25T06:47:48;11.63;;;5.60;;
79076;SDS011;68477;42.698;23.342;2024-03-25T06:50:14;9.25;;;5.53;;
79076;SDS011;68477;42.698;23.342;2024-03-25T06:52:39;9.32;;;5.00;;
79076;SDS011;68477;42.698;23.342;2024-03-25T06:55:05;11.32;;;6.68;;
79076;SDS011;68477;42.698;23.342;2024-03-25T06:57:31;10.35;;;6.60;;
79076;SDS011;68477;42.698;23.342;2024-03-25T06:59:56;11.52;;;7.60;;
79076;SDS011;68477;42.698;23.342;2024-03-25T07:02:23;8.38;;;5.80;;
79076;SDS011;68477;42.698;23.342;2024-03-25T07:04:48;11.57;;;5.22;;
79076;SDS011;68477;42.698;23.342;2024-03-25T07:07:14;9.57;;;4.75;;
79076;SDS011;68477;42.698;23.342;2024-03-25T07:09:39;10.30;;;5.30;;
79076;SDS011;68477;42.698;23.342;2024-03-25T07:12:06;9.95;;;6.05;;
79076;SDS011;68477;42.698;23.342;2024-03-25T07:14:31;9.80;;;6.20;;
79076;SDS011;68477;42.698;23.342;2024-03-25T07:16:57;8.98;;;5.32;;
79076;SDS011;68477;42.698;23.342;2024-03-25T07:19:22;11.95;;;6.40;;
79076;SDS011;68477;42.698;23.342;2024-03-25T07:21:48;9.77;;;5.43;;
79076;SDS011;68477;42.698;23.342;2024-03-25T07:24:13;10.00;;;5.82;;
79076;SDS011;68477;42.698;23.342;2024-03-25T07:26:39;9.95;;;6.80;;
79076;SDS011;68477;42.698;23.342;2024-03-25T07:29:04;10.38;;;4.75;;
79076;SDS011;68477;42.698;23.342;2024-03-25T07:31:30;14.65;;;6.70;;
79076;SDS011;68477;42.698;23.342;2024-03-25T07:33:56;8.80;;;5.70;;
79076;SDS011;68477;42.698;23.342;2024-03-25T07:36:21;8.48;;;5.80;;
79076;SDS011;68477;42.698;23.342;2024-03-25T07:38:47;10.95;;;6.20;;
79076;SDS011;68477;42.698;23.342;2024-03-25T07:41:13;10.02;;;5.38;;
79076;SDS011;68477;42.698;23.342;2024-03-25T07:43:39;8.63;;;5.28;;
79076;SDS011;68477;42.698;23.342;2024-03-25T07:46:04;13.68;;;6.05;;
79076;SDS011;68477;42.698;23.342;2024-03-25T07:48:30;9.32;;;5.43;;
79076;SDS011;68477;42.698;23.342;2024-03-25T07:50:56;9.77;;;4.88;;
79076;SDS011;68477;42.698;23.342;2024-03-25T07:53:22;9.90;;;5.90;;
79076;SDS011;68477;42.698;23.342;2024-03-25T07:55:47;10.15;;;4.95;;
79076;SDS011;68477;42.698;23.342;2024-03-25T07:58:13;8.85;;;5.38;;
79076;SDS011;68477;42.698;23.342;2024-03-25T08:00:38;8.25;;;5.05;;
79076;SDS011;68477;42.698;23.342;2024-03-25T08:03:04;8.95;;;5.53;;
79076;SDS011;68477;42.698;23.342;2024-03-25T08:05:30;7.97;;;4.85;;
79076;SDS011;68477;42.698;23.342;2024-03-25T08:07:55;9.40;;;5.47;;
79076;SDS011;68477;42.698;23.342;2024-03-25T08:10:21;8.00;;;5.22;;
79076;SDS011;68477;42.698;23.342;2024-03-25T08:12:46;9.43;;;5.22;;
79076;SDS011;68477;42.698;23.342;2024-03-25T08:15:13;9.00;;;5.07;;
79076;SDS011;68477;42.698;23.342;2024-03-25T08:17:39;10.38;;;5.57;;
79076;SDS011;68477;42.698;23.342;2024-03-25T08:20:04;7.65;;;4.80;;
79076;SDS011;68477;42.698;23.342;2024-03-25T08:22:30;10.48;;;4.68;;
79076;SDS011;68477;42.698;23.342;2024-03-25T08:24:56;14.48;;;7.43;;
79076;SDS011;68477;42.698;23.342;2024-03-25T08:27:21;7.78;;;5.20;;
79076;SDS011;68477;42.698;23.342;2024-03-25T08:29:47;6.57;;;4.05;;
79076;SDS011;68477;42.698;23.342;2024-03-25T08:32:14;7.28;;;4.70;;
79076;SDS011;68477;42.698;23.342;2024-03-25T08:34:39;10.60;;;4.78;;
79076;SDS011;68477;42.698;23.342;2024-03-25T08:37:05;9.15;;;5.55;;
79076;SDS011;68477;42.698;23.342;2024-03-25T08:39:30;7.63;;;5.13;;
79076;SDS011;68477;42.698;23.342;2024-03-25T08:41:56;9.68;;;5.10;;
79076;SDS011;68477;42.698;23.342;2024-03-25T08:44:21;9.40;;;5.38;;
79076;SDS011;68477;42.698;23.342;2024-03-25T08:46:47;9.00;;;5.13;;
79076;SDS011;68477;42.698;23.342;2024-03-25T08:49:12;8.73;;;5.38;;
79076;SDS011;68477;42.698;23.342;2024-03-25T08:51:38;9.25;;;5.85;;
79076;SDS011;68477;42.698;23.342;2024-03-25T08:54:03;9.52;;;5.35;;
79076;SDS011;68477;42.698;23.342;2024-03-25T08:56:28;9.13;;;6.03;;
79076;SDS011;68477;42.698;23.342;2024-03-25T08:58:54;11.77;;;5.82;;
79076;SDS011;68477;42.698;23.342;2024-03-25T09:01:20;9.77;;;5.75;;
79076;SDS011;68477;42.698;23.342;2024-03-25T09:03:45;7.60;;;5.07;;
79076;SDS011;68477;42.698;23.342;2024-03-25T09:06:11;8.27;;;4.47;;
79076;SDS011;68477;42.698;23.342;2024-03-25T09:08:38;11.52;;;4.85;;
79076;SDS011;68477;42.698;23.342;2024-03-25T09:11:23;8.35;;;5.68;;
79076;SDS011;68477;42.698;23.342;2024-03-25T09:13:50;5.95;;;4.28;;
79076;SDS011;68477;42.698;23.342;2024-03-25T09:16:15;8.15;;;5.57;;
79076;SDS011;68477;42.698;23.342;2024-03-25T09:18:41;8.38;;;5.22;;
79076;SDS011;68477;42.698;23.342;2024-03-25T09:21:08;8.38;;;5.95;;
79076;SDS011;68477;42.698;23.342;2024-03-25T09:23:34;7.88;;;4.80;;
79076;SDS011;68477;42.698;23.342;2024-03-25T09:25:59;9.93;;;5.57;;
79076;SDS011;68477;42.698;23.342;2024-03-25T09:28:25;6.65;;;4.22;;
79076;SDS011;68477;42.698;23.342;2024-03-25T09:30:50;16.27;;;6.72;;
79076;SDS011;68477;42.698;23.342;2024-03-25T09:33:16;8.38;;;4.97;;
79076;SDS011;68477;42.698;23.342;2024-03-25T09:35:41;6.35;;;4.10;;
79076;SDS011;68477;42.698;23.342;2024-03-25T09:38:07;10.10;;;4.95;;
79076;SDS011;68477;42.698;23.342;2024-03-25T09:40:38;10.90;;;6.05;;
79076;SDS011;68477;42.698;23.342;2024-03-25T09:43:05;8.90;;;5.32;;
79076;SDS011;68477;42.698;23.342;2024-03-25T09:45:38;10.10;;;5.10;;
79076;SDS011;68477;42.698;23.342;2024-03-25T09:48:05;7.63;;;5.10;;
79076;SDS011;68477;42.698;23.342;2024-03-25T09:50:32;8.75;;;5.70;;
79076;SDS011;68477;42.698;23.342;2024-03-25T09:52:57;6.53;;;4.22;;
79076;SDS011;68477;42.698;23.342;2024-03-25T09:55:23;7.53;;;4.20;;
79076;SDS011;68477;42.698;23.342;2024-03-25T09:57:49;7.00;;;4.45;;
79076;SDS011;68477;42.698;23.342;2024-03-25T10:00:14;6.65;;;4.32;;
79076;SDS011;68477;42.698;23.342;2024-03-25T10:02:41;6.65;;;4.85;;
79076;SDS011;68477;42.698;23.342;2024-03-25T10:05:07;7.15;;;4.47;;
79076;SDS011;68477;42.698;23.342;2024-03-25T10:07:33;7.43;;;5.00;;
79076;SDS011;68477;42.698;23.342;2024-03-25T10:09:59;6.65;;;3.95;;
79076;SDS011;68477;42.698;23.342;2024-03-25T10:12:28;5.60;;;4.00;;
79076;SDS011;68477;42.698;23.342;2024-03-25T10:14:53;9.95;;;4.90;;
79076;SDS011;68477;42.698;23.342;2024-03-25T10:17:19;5.75;;;3.67;;
79076;SDS011;68477;42.698;23.342;2024-03-25T10:19:44;7.03;;;4.60;;
79076;SDS011;68477;42.698;23.342;2024-03-25T10:22:10;6.95;;;3.80;;
79076;SDS011;68477;42.698;23.342;2024-03-25T10:24:39;7.18;;;5.03;;
79076;SDS011;68477;42.698;23.342;2024-03-25T10:27:05;5.68;;;4.15;;
79076;SDS011;68477;42.698;23.342;2024-03-25T10:29:34;6.40;;;4.03;;
79076;SDS011;68477;42.698;23.342;2024-03-25T10:32:00;6.70;;;3.80;;
79076;SDS011;68477;42.698;23.342;2024-03-25T10:34:28;5.78;;;4.03;;
79076;SDS011;68477;42.698;23.342;2024-03-25T10:36:57;3.92;;;2.92;;
79076;SDS011;68477;42.698;23.342;2024-03-25T10:39:25;6.15;;;3.90;;
79076;SDS011;68477;42.698;23.342;2024-03-25T10:41:58;5.32;;;3.55;;
79076;SDS011;68477;42.698;23.342;2024-03-25T10:44:28;4.85;;;3.42;;
79076;SDS011;68477;42.698;23.342;2024-03-25T10:47:04;8.27;;;3.40;;
79076;SDS011;68477;42.698;23.342;2024-03-25T10:52:30;5.40;;;3.70;;
79076;SDS011;68477;42.698;23.342;2024-03-25T10:54:57;15.25;;;6.18;;
79076;SDS011;68477;42.698;23.342;2024-03-25T10:57:24;10.85;;;4.00;;
79076;SDS011;68477;42.698;23.342;2024-03-25T10:59:51;4.55;;;3.42;;
79076;SDS011;68477;42.698;23.342;2024-03-25T11:02:17;4.70;;;2.80;;
79076;SDS011;68477;42.698;23.342;2024-03-25T11:04:44;6.80;;;3.88;;
79076;SDS011;68477;42.698;23.342;2024-03-25T11:07:10;6.20;;;3.47;;
79076;SDS011;68477;42.698;23.342;2024-03-25T11:09:40;8.20;;;4.75;;
79076;SDS011;68477;42.698;23.342;2024-03-25T11:12:06;4.93;;;2.53;;
79076;SDS011;68477;42.698;23.342;2024-03-25T11:14:35;6.80;;;4.32;;
79076;SDS011;68477;42.698;23.342;2024-03-25T11:17:01;9.15;;;4.50;;
79076;SDS011;68477;42.698;23.342;2024-03-25T11:19:27;6.72;;;3.50;;
79076;SDS011;68477;42.698;23.342;2024-03-25T11:21:54;7.85;;;3.92;;
79076;SDS011;68477;42.698;23.342;2024-03-25T11:24:33;5.50;;;4.13;;
79076;SDS011;68477;42.698;23.342;2024-03-25T11:27:01;6.05;;;3.90;;
79076;SDS011;68477;42.698;23.342;2024-03-25T11:29:27;4.75;;;3.08;;
79076;SDS011;68477;42.698;23.342;2024-03-25T11:31:53;7.53;;;3.78;;
79076;SDS011;68477;42.698;23.342;2024-03-25T11:34:20;6.75;;;3.22;;
79076;SDS011;68477;42.698;23.342;2024-03-25T11:36:45;4.90;;;2.75;;
79076;SDS011;68477;42.698;23.342;2024-03-25T11:41:40;8.80;;;3.00;;
79076;SDS011;68477;42.698;23.342;2024-03-25T11:44:07;5.43;;;2.83;;
79076;SDS011;68477;42.698;23.342;2024-03-25T11:46:35;6.20;;;3.17;;
79076;SDS011;68477;42.698;23.342;2024-03-25T11:49:03;8.07;;;3.70;;
79076;SDS011;68477;42.698;23.342;2024-03-25T11:51:33;7.20;;;4.30;;
79076;SDS011;68477;42.698;23.342;2024-03-25T11:53:58;6.65;;;4.22;;
79076;SDS011;68477;42.698;23.342;2024-03-25T11:56:25;4.93;;;3.22;;
79076;SDS011;68477;42.698;23.342;2024-03-25T11:58:51;5.55;;;3.10;;
79076;SDS011;68477;42.698;23.342;2024-03-25T12:01:16;6.28;;;2.45;;
79076;SDS011;68477;42.698;23.342;2024-03-25T12:03:42;6.97;;;4.15;;
79076;SDS011;68477;42.698;23.342;2024-03-25T12:06:08;4.15;;;3.08;;
79076;SDS011;68477;42.698;23.342;2024-03-25T12:08:33;5.45;;;2.90;;
79076;SDS011;68477;42.698;23.342;2024-03-25T12:11:01;5.05;;;3.70;;
79076;SDS011;68477;42.698;23.342;2024-03-25T12:13:42;4.97;;;3.15;;
79076;SDS011;68477;42.698;23.342;2024-03-25T12:16:09;5.60;;;3.15;;
79076;SDS011;68477;42.698;23.342;2024-03-25T12:18:39;5.57;;;3.47;;
79076;SDS011;68477;42.698;23.342;2024-03-25T12:21:09;4.50;;;3.17;;
79076;SDS011;68477;42.698;23.342;2024-03-25T12:23:36;8.20;;;3.15;;
79076;SDS011;68477;42.698;23.342;2024-03-25T12:26:02;8.75;;;4.20;;
79076;SDS011;68477;42.698;23.342;2024-03-25T12:28:32;4.75;;;3.17;;
79076;SDS011;68477;42.698;23.342;2024-03-25T12:31:00;8.57;;;3.45;;
79076;SDS011;68477;42.698;23.342;2024-03-25T12:33:26;10.27;;;3.17;;
79076;SDS011;68477;42.698;23.342;2024-03-25T12:35:52;6.82;;;2.85;;
79076;SDS011;68477;42.698;23.342;2024-03-25T12:38:28;11.82;;;3.28;;
79076;SDS011;68477;42.698;23.342;2024-03-25T12:41:11;5.18;;;3.25;;
79076;SDS011;68477;42.698;23.342;2024-03-25T12:43:44;11.40;;;3.30;;
79076;SDS011;68477;42.698;23.342;2024-03-25T12:46:10;9.27;;;2.92;;
79076;SDS011;68477;42.698;23.342;2024-03-25T12:48:36;6.00;;;2.63;;
79076;SDS011;68477;42.698;23.342;2024-03-25T12:51:02;5.15;;;3.05;;
79076;SDS011;68477;42.698;23.342;2024-03-25T12:53:28;9.18;;;3.63;;
79076;SDS011;68477;42.698;23.342;2024-03-25T12:55:54;3.17;;;2.03;;
79076;SDS011;68477;42.698;23.342;2024-03-25T12:58:19;5.47;;;2.20;;
79076;SDS011;68477;42.698;23.342;2024-03-25T13:00:45;7.88;;;3.35;;
79076;SDS011;68477;42.698;23.342;2024-03-25T13:03:10;4.95;;;2.70;;
79076;SDS011;68477;42.698;23.342;2024-03-25T13:05:37;3.70;;;2.22;;
79076;SDS011;68477;42.698;23.342;2024-03-25T13:08:03;9.95;;;3.38;;
79076;SDS011;68477;42.698;23.342;2024-03-25T13:10:29;3.35;;;2.35;;
79076;SDS011;68477;42.698;23.342;2024-03-25T13:12:55;3.92;;;2.80;;
79076;SDS011;68477;42.698;23.342;2024-03-25T13:15:21;3.45;;;2.17;;
79076;SDS011;68477;42.698;23.342;2024-03-25T13:17:47;7.22;;;3.10;;
79076;SDS011;68477;42.698;23.342;2024-03-25T13:20:12;3.78;;;2.80;;
79076;SDS011;68477;42.698;23.342;2024-03-25T13:22:38;3.28;;;2.38;;
79076;SDS011;68477;42.698;23.342;2024-03-25T13:25:05;4.35;;;2.83;;
79076;SDS011;68477;42.698;23.342;2024-03-25T13:27:30;6.68;;;3.83;;
79076;SDS011;68477;42.698;23.342;2024-03-25T13:29:56;4.60;;;3.20;;
79076;SDS011;68477;42.698;23.342;2024-03-25T13:32:22;4.68;;;3.15;;
79076;SDS011;68477;42.698;23.342;2024-03-25T13:34:49;4.60;;;3.03;;
79076;SDS011;68477;42.698;23.342;2024-03-25T13:37:14;7.35;;;2.92;;
79076;SDS011;68477;42.698;23.342;2024-03-25T13:39:41;11.18;;;4.03;;
79076;SDS011;68477;42.698;23.342;2024-03-25T13:42:06;3.92;;;2.65;;
79076;SDS011;68477;42.698;23.342;2024-03-25T13:44:32;6.20;;;3.15;;
79076;SDS011;68477;42.698;23.342;2024-03-25T13:46:58;5.95;;;2.78;;
79076;SDS011;68477;42.698;23.342;2024-03-25T13:49:23;3.95;;;2.85;;
79076;SDS011;68477;42.698;23.342;2024-03-25T13:51:58;3.80;;;2.45;;
79076;SDS011;68477;42.698;23.342;2024-03-25T13:54:24;5.63;;;2.53;;
79076;SDS011;68477;42.698;23.342;2024-03-25T13:56:50;6.13;;;2.90;;
79076;SDS011;68477;42.698;23.342;2024-03-25T13:59:17;6.63;;;2.80;;
79076;SDS011;68477;42.698;23.342;2024-03-25T14:01:43;3.47;;;1.95;;
79076;SDS011;68477;42.698;23.342;2024-03-25T14:04:09;3.25;;;1.92;;
79076;SDS011;68477;42.698;23.342;2024-03-25T14:06:35;8.80;;;2.03;;
79076;SDS011;68477;42.698;23.342;2024-03-25T14:09:01;3.47;;;2.15;;
79076;SDS011;68477;42.698;23.342;2024-03-25T14:11:30;3.63;;;2.38;;
79076;SDS011;68477;42.698;23.342;2024-03-25T14:13:55;6.18;;;2.00;;
79076;SDS011;68477;42.698;23.342;2024-03-25T14:16:21;3.22;;;1.63;;
79076;SDS011;68477;42.698;23.342;2024-03-25T14:18:46;2.55;;;1.63;;
79076;SDS011;68477;42.698;23.342;2024-03-25T14:21:12;3.25;;;2.00;;
79076;SDS011;68477;42.698;23.342;2024-03-25T14:23:38;2.95;;;1.88;;
79076;SDS011;68477;42.698;23.342;2024-03-25T14:26:08;3.38;;;1.70;;
79076;SDS011;68477;42.698;23.342;2024-03-25T14:28:34;5.47;;;2.05;;
79076;SDS011;68477;42.698;23.342;2024-03-25T14:30:59;2.88;;;1.63;;
79076;SDS011;68477;42.698;23.342;2024-03-25T14:33:25;3.03;;;1.77;;
79076;SDS011;68477;42.698;23.342;2024-03-25T14:35:50;4.90;;;2.20;;
79076;SDS011;68477;42.698;23.342;2024-03-25T14:38:16;2.25;;;1.40;;